Terminal Aerodrome Forecast
Issued by NWS Jackson, MS

Home | Current Version | Previous Version | Text Only | Print | Product List | Glossary On
Versions: 1 2 3 4 5 6 7 8 9 10 11 12 13 14
000
FTUS44 KJAN 301130
TAFMEI
TAF
KMEI 301130Z 3012/3112 00000KT P6SM SKC
     FM301400 02007KT P6SM SCT030 BKN050
     FM301800 01009KT P6SM VCTS SCT040 BKN060CB
     FM302100 36007KT P6SM SCT250=

USA.gov is the U.S. government's official web portal to all federal, state and local government web resources and services.